KCVO

Corvallis Municipal Airport

Corvallis, Oregon, USA
METAR KCVO 201513Z AUTO 17009KT 8SM -SN SCT029 OVC035 00/M01 A3022 RMK AO2 P0000 FZRANO
Observed Flight Rules
Feb-20 @ 15:13 UTC (5 hours ago) Visual Flight Rules
Wind Visibility Clouds Conditions
170° at 9 knots 8 miles
  • Scattered at 2,900' AGL
  • Overcast at 3,500' AGL
  • Light Snow
Temperatures Readings Precipitation
Current 0°C / 32°F
Dewpoint -1°C / 30°F
Humidity 93%
Altimeter 30.22" Hg
Pressure 1023 hPa
Elevation 75
Current Rain 0.005
METAR KCVO 201513Z AUTO 17009KT 8SM -SN SCT029 OVC035 00/M01 A3022 RMK AO2 P0000 FZRANO
Observed Flight Rules
Feb-20 @ 15:13 UTC
(5 hours ago)
VFR
Wind Visibility
170° at 9 knots 8 miles
Clouds
  • Scattered at 2,900' AGL
  • Overcast at 3,500' AGL
Conditions
  • Light Snow
Temperature Dewpoint
0°C / 32°F -1°C / 30°F
Humidity Altimeter Pressure
93% 30.22" Hg 1023 hPa
Current Rain
0.005